Time;durP1;ratioP1;P1;durP2;ratioP2;P2;SDS_P1;SDS_P2;PMS_P1;PMS_P2;Temp;Humidity;BMP_temperature;BMP_pressure;BME280_temperature;BME280_humidity;BME280_pressure;Samples;Min_cycle;Max_cycle;Signal;HPM_P1;HPM_P2
2024/01/15 00:00:28;;;;;;;;;;;;;;;19.94;26.86;94283.81;10480159;28;2837;-68
2024/01/15 00:05:28;;;;;;;;;;;;;;;19.92;26.47;94275.47;10478326;28;2986;-69
2024/01/15 00:10:29;;;;;;;;;;;;;;;19.90;26.40;94282.09;10468180;28;2863;-68
2024/01/15 00:15:30;;;;;;;;;;;;;;;19.90;26.82;94284.72;10473789;28;2809;-69
2024/01/15 00:20:30;;;;;;;;;;;;;;;19.88;26.76;94292.16;10473076;28;2922;-69
2024/01/15 00:25:30;;;;;;;;;;;;;;;19.87;26.70;94298.47;10469191;28;2973;-68
2024/01/15 00:30:31;;;;;;;;;;;;;;;19.85;27.18;94303.25;10470330;28;3637;-68
2024/01/15 00:35:31;;;;;;;;;;;;;;;19.85;26.84;94300.63;10466758;28;2858;-68
2024/01/15 00:40:31;;;;;;;;;;;;;;;19.83;26.76;94314.09;10502821;28;2886;-68
2024/01/15 00:45:31;;;;;;;;;;;;;;;19.83;26.98;94324.59;10470620;28;2937;-69
2024/01/15 00:50:32;;;;;;;;;;;;;;;19.83;26.69;94323.81;10463201;28;3001;-69
2024/01/15 00:55:32;;;;;;;;;;;;;;;19.80;26.78;94338.38;10469218;28;2945;-68
2024/01/15 01:00:32;;;;;;;;;;;;;;;19.81;26.26;94347.00;10472014;28;2858;-67
2024/01/15 01:05:33;;;;;;;;;;;;;;;19.79;26.45;94351.81;10471680;28;2911;-69
2024/01/15 01:10:33;;;;;;;;;;;;;;;19.78;26.69;94345.78;10464914;28;3119;-68
2024/01/15 01:15:33;;;;;;;;;;;;;;;19.76;26.30;94345.31;10466747;28;2984;-69
2024/01/15 01:20:34;;;;;;;;;;;;;;;19.72;26.60;94349.59;10468100;28;2932;-69
2024/01/15 01:25:34;;;;;;;;;;;;;;;19.74;26.39;94339.56;10468986;28;2874;-67
2024/01/15 01:30:34;;;;;;;;;;;;;;;19.72;26.32;94349.59;10464622;28;3027;-68
2024/01/15 01:35:34;;;;;;;;;;;;;;;19.72;26.66;94344.34;10465584;28;2910;-66
2024/01/15 01:40:35;;;;;;;;;;;;;;;19.71;26.05;94360.41;10466482;28;2941;-67
2024/01/15 01:45:35;;;;;;;;;;;;;;;19.72;25.92;94360.09;10465188;28;2969;-67
2024/01/15 01:50:35;;;;;;;;;;;;;;;19.70;26.20;94346.50;10466398;28;2923;-67
2024/01/15 01:55:36;;;;;;;;;;;;;;;19.71;26.01;94344.66;10472366;28;2944;-68
2024/01/15 02:00:36;;;;;;;;;;;;;;;19.70;26.39;94356.25;10494486;28;2993;-68
2024/01/15 02:05:36;;;;;;;;;;;;;;;19.71;25.91;94357.78;10471494;28;3055;-66
2024/01/15 02:10:37;;;;;;;;;;;;;;;19.71;25.71;94357.78;10466035;28;3048;-67
2024/01/15 02:15:37;;;;;;;;;;;;;;;19.71;25.80;94363.84;10463409;28;2926;-68
2024/01/15 02:20:37;;;;;;;;;;;;;;;19.70;25.75;94359.63;10459705;28;3011;-67
2024/01/15 02:25:41;;;;;;;;;;;;;;;19.71;25.99;94360.41;10470305;28;2853;-69
2024/01/15 02:30:42;;;;;;;;;;;;;;;19.71;26.13;94363.03;10469118;28;2889;-69
2024/01/15 02:35:42;;;;;;;;;;;;;;;19.70;25.58;94364.13;10472291;28;2934;-68
2024/01/15 02:40:43;;;;;;;;;;;;;;;19.69;25.35;94376.50;10469069;28;3129;-67
2024/01/15 02:45:43;;;;;;;;;;;;;;;19.68;25.60;94384.69;10472299;28;2996;-70
2024/01/15 02:50:44;;;;;;;;;;;;;;;19.68;26.00;94379.44;10475634;28;2839;-68
2024/01/15 02:55:44;;;;;;;;;;;;;;;19.66;25.85;94374.47;10478190;28;2845;-68
2024/01/15 03:00:46;;;;;;;;;;;;;;;19.68;25.69;94395.22;10476187;28;2964;-68
2024/01/15 03:05:47;;;;;;;;;;;;;;;19.67;25.82;94389.16;10502773;28;3000;-68
2024/01/15 03:10:47;;;;;;;;;;;;;;;19.67;25.90;94389.16;10472849;28;2965;-68
2024/01/15 03:15:47;;;;;;;;;;;;;;;19.67;25.85;94376.03;10467272;28;2927;-68
2024/01/15 03:20:48;;;;;;;;;;;;;;;19.66;25.57;94368.44;10474632;28;3157;-69
2024/01/15 03:25:49;;;;;;;;;;;;;;;19.67;25.77;94372.63;10475728;28;2920;-69
2024/01/15 03:30:49;;;;;;;;;;;;;;;19.69;25.69;94373.09;10473176;28;3199;-68
2024/01/15 03:35:49;;;;;;;;;;;;;;;19.68;25.61;94374.19;10475220;28;3020;-70
2024/01/15 03:40:49;;;;;;;;;;;;;;;19.66;25.82;94376.34;10473234;28;3177;-68
2024/01/15 03:45:50;;;;;;;;;;;;;;;19.67;25.96;94380.50;10474781;28;3309;-69
2024/01/15 03:50:50;;;;;;;;;;;;;;;19.67;25.79;94377.88;10474516;28;2957;-67
2024/01/15 03:55:50;;;;;;;;;;;;;;;19.67;25.74;94376.03;10475939;28;3094;-69
2024/01/15 04:00:51;;;;;;;;;;;;;;;19.66;25.56;94368.44;10474484;28;2997;-67
2024/01/15 04:05:51;;;;;;;;;;;;;;;19.65;25.76;94372.13;10503439;28;2923;-68
2024/01/15 04:10:51;;;;;;;;;;;;;;;19.66;25.74;94355.31;10471933;28;2978;-67
2024/01/15 04:15:52;;;;;;;;;;;;;;;19.65;25.43;94364.25;10466545;28;3116;-67
2024/01/15 04:20:52;;;;;;;;;;;;;;;19.67;25.39;94349.72;10455292;28;3134;-67
2024/01/15 04:25:52;;;;;;;;;;;;;;;19.68;25.68;94353.16;10463772;28;2934;-67
2024/01/15 04:30:52;;;;;;;;;;;;;;;19.65;25.44;94359.00;10467692;28;3028;-67
2024/01/15 04:35:53;;;;;;;;;;;;;;;19.67;25.69;94352.38;10473866;28;2926;-66
2024/01/15 04:40:53;;;;;;;;;;;;;;;19.66;25.86;94355.31;10465162;28;2972;-66
2024/01/15 04:45:53;;;;;;;;;;;;;;;19.67;25.69;94362.09;10463080;28;2913;-67
2024/01/15 04:50:53;;;;;;;;;;;;;;;19.69;25.66;94357.31;10469320;28;3048;-68
2024/01/15 04:55:54;;;;;;;;;;;;;;;19.71;25.85;94347.28;10471002;28;2969;-68
2024/01/15 05:00:54;;;;;;;;;;;;;;;19.74;26.03;94349.31;10469927;28;2957;-67
2024/01/15 05:05:54;;;;;;;;;;;;;;;19.74;26.25;94359.84;10465638;28;2949;-67
2024/01/15 05:10:57;;;;;;;;;;;;;;;19.77;25.82;94351.31;10469201;28;3020;-67
2024/01/15 05:15:57;;;;;;;;;;;;;;;19.77;25.70;94349.47;10470759;28;2922;-67
2024/01/15 05:20:58;;;;;;;;;;;;;;;19.77;26.25;94353.94;10473149;28;2949;-67
2024/01/15 05:25:58;;;;;;;;;;;;;;;19.79;25.74;94343.91;10468017;28;2914;-67
2024/01/15 05:30:58;;;;;;;;;;;;;;;19.77;26.08;94346.84;10467258;28;2983;-67
2024/01/15 05:35:59;;;;;;;;;;;;;;;19.80;25.37;94351.53;10494322;28;3028;-67
2024/01/15 05:40:59;;;;;;;;;;;;;;;19.78;25.79;94337.13;10467933;28;2969;-67
2024/01/15 05:45:59;;;;;;;;;;;;;;;19.78;26.13;94342.38;10465505;28;2966;-67
2024/01/15 05:51:00;;;;;;;;;;;;;;;19.81;25.30;94341.75;10468580;28;2925;-67
2024/01/15 05:56:01;;;;;;;;;;;;;;;19.79;26.08;94351.81;10466735;28;3008;-67
2024/01/15 06:01:01;;;;;;;;;;;;;;;19.81;25.56;94358.31;10469513;28;3030;-66
2024/01/15 06:06:02;;;;;;;;;;;;;;;19.80;25.46;94345.47;10471883;28;3024;-67
2024/01/15 06:11:03;;;;;;;;;;;;;;;19.80;25.52;94338.38;10472106;28;2921;-66
2024/01/15 06:16:03;;;;;;;;;;;;;;;19.79;25.95;94346.53;10475645;28;2855;-67
2024/01/15 06:21:03;;;;;;;;;;;;;;;19.78;26.00;94352.91;10457215;28;3036;-67
2024/01/15 06:26:04;;;;;;;;;;;;;;;19.82;25.91;94351.22;10476127;28;3016;-67
2024/01/15 06:31:05;;;;;;;;;;;;;;;19.79;25.86;94349.16;10474762;28;2998;-65
2024/01/15 06:36:06;;;;;;;;;;;;;;;19.78;26.27;94345.00;10470875;28;3030;-66
2024/01/15 06:41:06;;;;;;;;;;;;;;;19.80;25.50;94353.38;10467609;28;2945;-67
2024/01/15 06:46:07;;;;;;;;;;;;;;;19.80;25.24;94351.53;10477943;28;2875;-67
2024/01/15 06:51:07;;;;;;;;;;;;;;;19.78;25.22;94358.16;10468672;28;2825;-64
2024/01/15 06:56:07;;;;;;;;;;;;;;;19.79;24.96;94354.44;10476239;28;2996;-66
2024/01/15 07:01:08;;;;;;;;;;;;;;;19.79;25.21;94359.69;10475611;28;2982;-66
2024/01/15 07:06:08;;;;;;;;;;;;;;;19.74;25.15;94354.56;10472618;28;2814;-63
2024/01/15 07:11:09;;;;;;;;;;;;;;;19.73;25.38;94353.00;10472570;28;3036;-58
2024/01/15 07:16:09;;;;;;;;;;;;;;;19.75;25.23;94337.72;10465675;28;3027;-65
2024/01/15 07:21:09;;;;;;;;;;;;;;;19.83;25.70;94329.88;10470285;28;2922;-65
2024/01/15 07:26:09;;;;;;;;;;;;;;;19.88;25.03;94326.34;10471451;28;2980;-62
2024/01/15 07:31:10;;;;;;;;;;;;;;;19.87;25.05;94333.44;10471642;28;2886;-64
2024/01/15 07:36:10;;;;;;;;;;;;;;;19.97;24.99;94340.31;10465331;28;3483;-64
2024/01/15 07:41:11;;;;;;;;;;;;;;;20.03;25.31;94329.31;10470818;28;3049;-67
2024/01/15 07:46:11;;;;;;;;;;;;;;;20.04;25.23;94346.69;10469605;28;3019;-65
2024/01/15 07:51:12;;;;;;;;;;;;;;;20.11;25.20;94333.84;10472644;28;3085;-65
2024/01/15 07:56:12;;;;;;;;;;;;;;;20.09;25.24;94341.25;10465679;28;2957;-65
2024/01/15 08:01:12;;;;;;;;;;;;;;;20.13;24.83;94329.06;10467472;28;2938;-66
2024/01/15 08:06:12;;;;;;;;;;;;;;;20.14;25.24;94309.56;10484418;28;2913;-65
2024/01/15 08:11:13;;;;;;;;;;;;;;;20.16;24.70;94319.78;10453347;28;2988;-64
2024/01/15 08:16:13;;;;;;;;;;;;;;;20.16;24.72;94307.41;10469483;28;2974;-66
2024/01/15 08:21:13;;;;;;;;;;;;;;;20.19;24.68;94306.03;10462286;28;2971;-65
2024/01/15 08:26:14;;;;;;;;;;;;;;;20.19;24.78;94301.59;10470678;28;2967;-66
2024/01/15 08:31:16;;;;;;;;;;;;;;;20.20;24.75;94303.13;10467016;28;3033;-66
2024/01/15 08:36:17;;;;;;;;;;;;;;;20.20;24.60;94300.50;10467262;28;2929;-67
2024/01/15 08:41:17;;;;;;;;;;;;;;;20.20;24.68;94308.38;10464926;28;2938;-66
2024/01/15 08:46:18;;;;;;;;;;;;;;;20.20;24.78;94303.13;10463755;28;3001;-66
2024/01/15 08:51:21;;;;;;;;;;;;;;;20.21;24.25;94303.91;10462887;28;2967;-66
2024/01/15 08:56:21;;;;;;;;;;;;;;;20.23;24.59;94323.56;10478787;28;3056;-67
2024/01/15 09:01:23;;;;;;;;;;;;;;;20.25;24.65;94310.09;10464100;28;3012;-65
2024/01/15 09:06:23;;;;;;;;;;;;;;;20.25;24.48;94320.63;10466020;28;2877;-65
2024/01/15 09:11:24;;;;;;;;;;;;;;;20.24;24.93;94313.81;10464714;28;2939;-65
2024/01/15 09:16:24;;;;;;;;;;;;;;;20.23;24.52;94317.53;10466605;28;3008;-65
2024/01/15 09:21:25;;;;;;;;;;;;;;;20.22;24.74;94324.63;10467843;28;2957;-68
2024/01/15 09:26:25;;;;;;;;;;;;;;;20.24;24.37;94316.44;10465668;28;2965;-65
2024/01/15 09:31:25;;;;;;;;;;;;;;;20.23;24.89;94328.06;10465373;28;2846;-64
2024/01/15 09:36:26;;;;;;;;;;;;;;;20.25;24.71;94325.88;10469758;28;2931;-65
2024/01/15 09:41:26;;;;;;;;;;;;;;;20.23;24.48;94325.41;10474002;28;2961;-65
2024/01/15 09:46:27;;;;;;;;;;;;;;;20.24;24.91;94322.47;10476775;28;3075;-65
2024/01/15 09:51:28;;;;;;;;;;;;;;;20.24;24.49;94324.31;10497444;28;3083;-65
2024/01/15 09:56:28;;;;;;;;;;;;;;;20.23;24.52;94320.94;10501713;28;2976;-66
2024/01/15 10:01:28;;;;;;;;;;;;;;;20.23;24.27;94330.69;10470787;28;2989;-66
2024/01/15 10:06:29;;;;;;;;;;;;;;;20.25;24.51;94313.50;10470316;28;2870;-64
2024/01/15 10:11:29;;;;;;;;;;;;;;;20.21;24.75;94304.69;10473974;28;2939;-66
2024/01/15 10:16:29;;;;;;;;;;;;;;;20.24;24.74;94296.16;10471377;28;3048;-65
2024/01/15 10:21:31;;;;;;;;;;;;;;;20.26;24.56;94301.13;10504676;28;3112;-63
2024/01/15 10:26:32;;;;;;;;;;;;;;;20.23;24.52;94281.47;10473220;28;2900;-65
2024/01/15 10:31:32;;;;;;;;;;;;;;;20.22;24.50;94279.13;10475181;28;2985;-65
2024/01/15 10:36:32;;;;;;;;;;;;;;;20.20;24.79;94266.28;10471706;28;3048;-64
2024/01/15 10:41:32;;;;;;;;;;;;;;;20.20;24.56;94266.28;10469676;28;3207;-65
2024/01/15 10:46:33;;;;;;;;;;;;;;;20.19;24.39;94256.03;10469611;28;3000;-64
2024/01/15 10:51:33;;;;;;;;;;;;;;;20.22;24.40;94271.22;10470312;28;2961;-64
2024/01/15 10:56:34;;;;;;;;;;;;;;;20.20;24.59;94252.34;10469822;28;2958;-64
2024/01/15 11:01:35;;;;;;;;;;;;;;;20.17;24.55;94251.06;10468045;28;2970;-63
2024/01/15 11:06:42;;;;;;;;;;;;;;;20.23;24.31;94254.38;10485121;28;2926;-64
2024/01/15 11:11:43;;;;;;;;;;;;;;;20.26;25.22;94253.75;10462680;28;2944;-66
2024/01/15 11:16:56;;;;;;;;;;;;;;;20.26;24.45;94237.97;10470160;28;2882;-64
2024/01/15 11:21:56;;;;;;;;;;;;;;;20.29;24.69;94245.25;10472416;28;2911;-64
2024/01/15 11:26:57;;;;;;;;;;;;;;;20.31;24.40;94244.94;10472263;28;2909;-63
2024/01/15 11:31:58;;;;;;;;;;;;;;;20.29;25.07;94237.38;10468278;28;2949;-63
2024/01/15 11:37:03;;;;;;;;;;;;;;;20.32;24.88;94228.84;10471175;28;2899;-64
2024/01/15 11:42:03;;;;;;;;;;;;;;;20.38;24.95;94230.22;10470779;28;2878;-66
2024/01/15 11:47:04;;;;;;;;;;;;;;;20.38;26.37;94238.13;10465045;28;2941;-70
2024/01/15 11:52:05;;;;;;;;;;;;;;;20.38;26.86;94229.47;10470850;28;2898;-70
2024/01/15 11:57:09;;;;;;;;;;;;;;;20.45;25.73;94229.78;10485035;28;2959;-71
2024/01/15 12:02:12;;;;;;;;;;;;;;;20.46;25.97;94211.06;10466644;28;2997;-71
2024/01/15 12:07:13;;;;;;;;;;;;;;;20.39;26.69;94204.69;10470003;28;2858;-69
2024/01/15 12:12:14;;;;;;;;;;;;;;;20.40;26.22;94204.41;10496160;28;3033;-69
2024/01/15 12:17:14;;;;;;;;;;;;;;;20.37;26.63;94201.59;10499412;27;2776;-68
2024/01/15 12:22:15;;;;;;;;;;;;;;;20.32;27.44;94176.22;10473515;28;3007;-68
2024/01/15 12:27:15;;;;;;;;;;;;;;;20.32;27.23;94157.78;10450823;28;2985;-70
2024/01/15 12:32:16;;;;;;;;;;;;;;;20.30;27.42;94128.38;10466669;28;3120;-70
2024/01/15 12:37:19;;;;;;;;;;;;;;;20.31;27.57;94129.94;10461139;28;3112;-71
2024/01/15 12:42:20;;;;;;;;;;;;;;;20.27;27.76;94142.94;10465942;28;3207;-70
2024/01/15 12:47:21;;;;;;;;;;;;;;;20.27;27.98;94150.84;10467101;28;3058;-69
2024/01/15 12:52:21;;;;;;;;;;;;;;;20.27;27.91;94152.69;10468147;28;2973;-70
2024/01/15 12:57:22;;;;;;;;;;;;;;;20.27;28.10;94142.94;10498157;28;3060;-69
2024/01/15 13:02:22;;;;;;;;;;;;;;;20.28;27.59;94141.84;10498435;28;2980;-68
2024/01/15 13:07:22;;;;;;;;;;;;;;;20.25;27.64;94146.97;10467337;28;3086;-69
2024/01/15 13:12:22;;;;;;;;;;;;;;;20.24;27.55;94187.50;10466731;28;3048;-70
2024/01/15 13:17:23;;;;;;;;;;;;;;;20.21;28.03;94194.19;10464062;28;2867;-68
2024/01/15 13:22:30;;;;;;;;;;;;;;;20.20;27.41;94181.31;10463280;28;2960;-68
2024/01/15 13:27:30;;;;;;;;;;;;;;;20.17;27.48;94177.41;10461897;28;2933;-70
2024/01/15 13:32:30;;;;;;;;;;;;;;;20.17;27.62;94171.38;10465651;28;2873;-69
2024/01/15 13:37:30;;;;;;;;;;;;;;;20.16;27.28;94169.81;10492759;28;2936;-68
2024/01/15 13:42:31;;;;;;;;;;;;;;;20.13;27.75;94178.34;10464050;28;2999;-68
2024/01/15 13:47:32;;;;;;;;;;;;;;;20.09;27.40;94170.28;10465875;28;2843;-68
2024/01/15 13:52:32;;;;;;;;;;;;;;;20.09;27.10;94174.78;10495073;28;2965;-68
2024/01/15 13:57:32;;;;;;;;;;;;;;;20.07;27.16;94177.72;10463098;28;2951;-69
2024/01/15 14:02:33;;;;;;;;;;;;;;;20.08;26.27;94170.59;10479830;28;2965;-70
2024/01/15 14:07:33;;;;;;;;;;;;;;;20.04;27.05;94167.03;10465509;28;3243;-69
2024/01/15 14:12:33;;;;;;;;;;;;;;;20.04;26.56;94180.97;10468869;28;2939;-70
2024/01/15 14:17:34;;;;;;;;;;;;;;;20.04;26.74;94182.81;10481702;28;2961;-72
2024/01/15 14:22:34;;;;;;;;;;;;;;;20.02;26.98;94195.50;10465662;28;3011;-70
2024/01/15 14:27:34;;;;;;;;;;;;;;;20.03;26.80;94203.06;10473072;28;3031;-70
2024/01/15 14:32:34;;;;;;;;;;;;;;;20.02;26.75;94200.75;10468643;28;2973;-72
2024/01/15 14:37:35;;;;;;;;;;;;;;;20.01;26.77;94199.22;10469158;28;3024;-72
2024/01/15 14:42:36;;;;;;;;;;;;;;;19.99;26.53;94201.38;10474386;28;2913;-71
2024/01/15 14:47:37;;;;;;;;;;;;;;;19.99;26.73;94196.88;10471651;28;2985;-70
2024/01/15 14:52:37;;;;;;;;;;;;;;;19.99;26.43;94212.66;10475568;28;3004;-70
2024/01/15 14:57:37;;;;;;;;;;;;;;;19.95;26.82;94205.69;10471269;28;3000;-68
2024/01/15 15:02:38;;;;;;;;;;;;;;;19.99;25.99;94204.00;10471408;28;3036;-70
2024/01/15 15:07:38;;;;;;;;;;;;;;;19.96;26.22;94212.50;10466167;28;2961;-69
2024/01/15 15:12:38;;;;;;;;;;;;;;;19.96;26.11;94223.81;10473525;28;3103;-69
2024/01/15 15:17:39;;;;;;;;;;;;;;;19.95;26.36;94226.72;10455569;28;2862;-70
2024/01/15 15:22:39;;;;;;;;;;;;;;;19.93;26.02;94234.13;10475474;28;2874;-70
2024/01/15 15:27:39;;;;;;;;;;;;;;;19.95;26.87;94245.13;10470115;28;2968;-72
2024/01/15 15:32:40;;;;;;;;;;;;;;;19.99;26.87;94248.72;10454079;28;3017;-71
2024/01/15 15:37:40;;;;;;;;;;;;;;;20.04;25.99;94262.50;10468507;28;2977;-70
2024/01/15 15:42:40;;;;;;;;;;;;;;;20.06;26.31;94262.19;10471321;28;2882;-70
2024/01/15 15:47:40;;;;;;;;;;;;;;;20.12;25.62;94261.75;10455564;28;3090;-71
2024/01/15 15:52:41;;;;;;;;;;;;;;;20.11;25.42;94273.34;10471251;28;2863;-70
2024/01/15 15:57:41;;;;;;;;;;;;;;;20.14;25.20;94282.47;10457329;28;2973;-70
2024/01/15 16:02:41;;;;;;;;;;;;;;;20.17;25.26;94289.78;10464106;28;2885;-70
2024/01/15 16:07:42;;;;;;;;;;;;;;;20.20;25.30;94310.22;10468605;28;2868;-70
2024/01/15 16:12:42;;;;;;;;;;;;;;;20.23;25.19;94318.31;10465661;28;2904;-71
2024/01/15 16:17:42;;;;;;;;;;;;;;;20.24;25.05;94319.06;10495390;28;3008;-72
2024/01/15 16:22:43;;;;;;;;;;;;;;;20.26;24.71;94337.94;10495089;28;3032;-72
2024/01/15 16:27:43;;;;;;;;;;;;;;;20.28;25.04;94335.78;10499287;28;2966;-71
2024/01/15 16:32:46;;;;;;;;;;;;;;;20.26;24.82;94337.94;10468174;28;2929;-71
2024/01/15 16:37:46;;;;;;;;;;;;;;;20.28;25.26;94347.09;10478861;28;2984;-71
2024/01/15 16:42:48;;;;;;;;;;;;;;;20.28;24.92;94346.31;10467441;28;2879;-70
2024/01/15 16:47:48;;;;;;;;;;;;;;;20.31;24.95;94352.84;10466272;28;2917;-70
2024/01/15 16:52:48;;;;;;;;;;;;;;;20.28;24.71;94355.00;10465210;28;2930;-71
2024/01/15 16:57:49;;;;;;;;;;;;;;;20.27;24.82;94365.84;10467014;28;2966;-70
2024/01/15 17:02:49;;;;;;;;;;;;;;;20.30;25.14;94374.97;10464596;28;3100;-77
2024/01/15 17:07:49;;;;;;;;;;;;;;;20.31;25.56;94382.56;10458899;28;3101;-76
2024/01/15 17:12:50;;;;;;;;;;;;;;;20.35;25.52;94399.28;10461699;28;2957;-70
2024/01/15 17:17:50;;;;;;;;;;;;;;;20.32;24.77;94399.13;10462006;28;2972;-81
2024/01/15 17:22:50;;;;;;;;;;;;;;;20.28;25.10;94410.25;10462681;28;2917;-81
2024/01/15 17:27:50;;;;;;;;;;;;;;;20.36;25.76;94411.34;10476549;28;2826;-74
2024/01/15 17:32:51;;;;;;;;;;;;;;;20.36;25.82;94429.03;10512815;28;2169;-73
2024/01/15 17:37:51;;;;;;;;;;;;;;;20.38;25.47;94450.56;10482489;28;2474;-75
2024/01/15 17:42:51;;;;;;;;;;;;;;;20.36;25.66;94447.44;10512265;28;1678;-76
2024/01/15 17:47:52;;;;;;;;;;;;;;;20.39;26.37;94467.88;10484655;28;2235;-70
2024/01/15 17:52:52;;;;;;;;;;;;;;;20.41;25.63;94463.88;10491157;28;1511;-69
2024/01/15 17:57:52;;;;;;;;;;;;;;;20.42;25.62;94473.34;10492050;28;1902;-68
2024/01/15 18:02:55;;;;;;;;;;;;;;;20.45;25.56;94477.97;10483902;28;1491;-75
2024/01/15 18:07:55;;;;;;;;;;;;;;;20.40;25.45;94491.28;10498662;28;2169;-74
2024/01/15 18:12:55;;;;;;;;;;;;;;;20.40;25.35;94493.91;10483106;28;1797;-72
2024/01/15 18:17:56;;;;;;;;;;;;;;;20.37;25.70;94499.00;10494100;28;1906;-72
2024/01/15 18:22:56;;;;;;;;;;;;;;;20.36;25.45;94506.09;10499513;28;2224;-73
2024/01/15 18:27:56;;;;;;;;;;;;;;;20.36;25.36;94500.84;10485733;28;1724;-71
2024/01/15 18:32:56;;;;;;;;;;;;;;;20.34;25.40;94503.00;10502095;28;1546;-73
2024/01/15 18:37:57;;;;;;;;;;;;;;;20.35;25.34;94519.56;10472624;28;2502;-70
2024/01/15 18:42:57;;;;;;;;;;;;;;;20.33;25.40;94525.13;10490800;28;1559;-72
2024/01/15 18:47:57;;;;;;;;;;;;;;;20.34;25.59;94518.03;10487466;28;1509;-73
2024/01/15 18:52:59;;;;;;;;;;;;;;;20.33;25.17;94517.25;10484597;28;2279;-72
2024/01/15 18:57:59;;;;;;;;;;;;;;;20.32;25.27;94515.69;10492787;28;1906;-70
2024/01/15 19:03:00;;;;;;;;;;;;;;;20.33;24.95;94534.88;10489286;28;1725;-69
2024/01/15 19:08:01;;;;;;;;;;;;;;;20.31;24.78;94540.47;10485777;28;1538;-70
2024/01/15 19:13:04;;;;;;;;;;;;;;;20.28;24.70;94547.09;10488613;28;1485;-70
2024/01/15 19:18:05;;;;;;;;;;;;;;;20.27;24.66;94550.03;10487060;28;1981;-70
2024/01/15 19:23:05;;;;;;;;;;;;;;;20.29;24.81;94547.88;10485601;28;1710;-69
2024/01/15 19:28:07;;;;;;;;;;;;;;;20.28;24.35;94556.81;10488055;28;1481;-70
2024/01/15 19:33:07;;;;;;;;;;;;;;;20.26;24.55;94558.97;10485699;28;1549;-71
2024/01/15 19:38:09;;;;;;;;;;;;;;;20.25;24.36;94573.22;10496906;28;2556;-72
2024/01/15 19:43:10;;;;;;;;;;;;;;;20.23;24.85;94581.44;10486670;28;1668;-72
2024/01/15 19:48:11;;;;;;;;;;;;;;;20.27;24.63;94586.88;10486711;28;1474;-74
2024/01/15 19:53:11;;;;;;;;;;;;;;;20.28;24.92;94588.41;10485221;28;1553;-72
2024/01/15 19:58:13;;;;;;;;;;;;;;;20.29;24.63;94603.13;10451089;28;1915;-69
2024/01/15 20:03:14;;;;;;;;;;;;;;;20.30;24.35;94612.56;10489329;28;1491;-70
2024/01/15 20:08:14;;;;;;;;;;;;;;;20.27;24.69;94613.19;10487830;28;1708;-69
2024/01/15 20:13:14;;;;;;;;;;;;;;;20.29;24.62;94621.56;10486139;28;1523;-69
2024/01/15 20:18:14;;;;;;;;;;;;;;;20.28;24.44;94635.78;10482291;28;2362;-69
2024/01/15 20:23:15;;;;;;;;;;;;;;;20.26;24.71;94654.50;10483265;28;1468;-69
2024/01/15 20:28:15;;;;;;;;;;;;;;;20.26;24.96;94658.97;10513250;28;1520;-69
2024/01/15 20:33:15;;;;;;;;;;;;;;;20.25;24.35;94655.59;10486783;28;1625;-68
2024/01/15 20:38:16;;;;;;;;;;;;;;;20.26;24.88;94661.59;10479656;28;2454;-72
2024/01/15 20:43:16;;;;;;;;;;;;;;;20.31;25.03;94679.94;10484962;28;1399;-72
2024/01/15 20:48:16;;;;;;;;;;;;;;;20.31;24.83;94690.47;10483702;28;1490;-72
2024/01/15 20:53:16;;;;;;;;;;;;;;;20.28;25.11;94698.94;10482574;28;1533;-71
2024/01/15 20:58:20;;;;;;;;;;;;;;;20.30;25.29;94717.84;10478052;28;1913;-72
2024/01/15 21:03:22;;;;;;;;;;;;;;;20.28;25.17;94718.13;10481944;28;2400;-72
2024/01/15 21:08:22;;;;;;;;;;;;;;;20.28;24.80;94728.66;10471270;28;2873;-74
2024/01/15 21:13:22;;;;;;;;;;;;;;;20.29;24.76;94732.09;10467317;28;3000;-74
2024/01/15 21:18:23;;;;;;;;;;;;;;;20.31;24.95;94743.09;10470837;28;2997;-73
2024/01/15 21:23:24;;;;;;;;;;;;;;;20.26;25.04;94741.34;10463043;28;3011;-71
2024/01/15 21:28:24;;;;;;;;;;;;;;;20.24;25.25;94747.97;10465375;28;3026;-68
2024/01/15 21:33:27;;;;;;;;;;;;;;;20.20;25.18;94755.69;10466000;28;2885;-67
2024/01/15 21:38:27;;;;;;;;;;;;;;;20.16;25.26;94761.78;10463407;28;2983;-68
2024/01/15 21:43:27;;;;;;;;;;;;;;;20.12;25.06;94768.72;10492733;28;3086;-68
2024/01/15 21:48:27;;;;;;;;;;;;;;;20.09;24.93;94764.06;10461430;28;3025;-68
2024/01/15 21:53:28;;;;;;;;;;;;;;;20.07;24.89;94768.84;10474740;28;2996;-68
2024/01/15 21:58:28;;;;;;;;;;;;;;;20.04;25.01;94780.72;10467446;28;2852;-69
2024/01/15 22:03:29;;;;;;;;;;;;;;;20.01;24.89;94783.91;10461231;28;3091;-68
2024/01/15 22:08:29;;;;;;;;;;;;;;;19.99;24.81;94785.31;10463567;28;3131;-69
2024/01/15 22:13:29;;;;;;;;;;;;;;;19.96;24.93;94785.88;10466590;28;3155;-69
2024/01/15 22:18:30;;;;;;;;;;;;;;;19.94;24.90;94788.81;10463094;28;3004;-69
2024/01/15 22:23:30;;;;;;;;;;;;;;;19.92;24.89;94779.63;10462990;28;2902;-69
2024/01/15 22:28:31;;;;;;;;;;;;;;;19.90;24.78;94787.03;10460482;28;3468;-70
2024/01/15 22:33:31;;;;;;;;;;;;;;;19.89;24.76;94775.72;10460821;28;2949;-70
2024/01/15 22:38:31;;;;;;;;;;;;;;;19.85;24.58;94790.53;10464581;28;2905;-70
2024/01/15 22:43:31;;;;;;;;;;;;;;;19.83;24.69;94795.31;10473226;28;3083;-69
2024/01/15 22:48:32;;;;;;;;;;;;;;;19.84;24.31;94798.72;10474316;28;3167;-70
2024/01/15 22:53:32;;;;;;;;;;;;;;;19.77;24.35;94799.09;10475328;28;2877;-70
2024/01/15 22:58:32;;;;;;;;;;;;;;;19.77;24.30;94793.06;10473431;28;2902;-69
2024/01/15 23:03:32;;;;;;;;;;;;;;;19.72;24.40;94806.31;10470828;28;3010;-70
2024/01/15 23:08:33;;;;;;;;;;;;;;;19.70;24.47;94808.44;10471456;28;2928;-69
2024/01/15 23:13:33;;;;;;;;;;;;;;;19.64;24.35;94820.88;10470225;28;2817;-70
2024/01/15 23:18:33;;;;;;;;;;;;;;;19.63;24.33;94821.19;10472815;28;2957;-70
2024/01/15 23:23:33;;;;;;;;;;;;;;;19.60;24.25;94827.03;10470849;28;3004;-71
2024/01/15 23:28:34;;;;;;;;;;;;;;;19.57;24.22;94825.75;10470624;28;3053;-71
2024/01/15 23:33:34;;;;;;;;;;;;;;;19.56;24.46;94836.56;10471267;28;3130;-71
2024/01/15 23:38:38;;;;;;;;;;;;;;;19.52;24.47;94838.19;10463245;28;2950;-69
2024/01/15 23:43:38;;;;;;;;;;;;;;;19.47;24.27;94847.72;10498703;28;2980;-69
2024/01/15 23:48:39;;;;;;;;;;;;;;;19.47;24.27;94836.44;10466344;28;2937;-70
2024/01/15 23:53:39;;;;;;;;;;;;;;;19.41;24.51;94848.88;10500449;28;3032;-70
2024/01/15 23:58:40;;;;;;;;;;;;;;;19.41;24.20;94853.38;10469527;28;3105;-71
